Pagrindinis puslapis
METAR-TAF:

METAR-TAF

Oro uostai :

Ušuaja, Argentina

platuma: 54-48S, ilguma: 068-19W, Aukštis: 16 m

Dabartinis oras

Ataskaita buvo paskelbta 51 minutes, ne 16:00 UTC
Vėjas 23 kt iš Pietvakarių su gūsio iki 33 kt
Temperatūra 8°C
Drėgmė 61%
Slėgis 995 hPa
Matomumas 10 km arba daugiau
Su prošvaistėmis ne aukštis 4000 ft

METAR: SAWH 201600Z 23023G33KT 9999 BKN040 08/01 Q0995

Laikas: 13:51 (16:51 UTC)

Prognozė

Ataskaita buvo paskelbta 5 valandos ir 51 minutes, ne 11:00 UTC
Prognozė galioja nuo 20 metu 12 UTC su 21 metu 12 UTC
Vėjas 20 kt iš Pietvakarių su gūsio iki 30 kt
Matomumas 10 km arba daugiau
Su prošvaistėmis ne aukštis 3000 ft
Su prošvaistėmis ne aukštis 6000 ft
lietus
Tapsmas
nuo 20 metu 15 UTC su 20 metu 17 UTC
Vėjas 15 kt iš Vakarų/Pietvakarių
Tapsmas
nuo 21 metu 01 UTC su 21 metu 03 UTC
Vėjas 5 kt nuo kintamojo kryptimis
Išsisklaidę debesys ne aukštis 3000 ft

TAF: SAWH 201100Z 2012/2112 23020G30KT 9999 -RA BKN030 BKN060 TX10/2019Z TN00/2110Z BECMG 2015/2017 25015KT BECMG 2101/2103 VRB05KT NSW SCT030

Orai ataskaitas ir orų prognozės (METAR, TAF).

turimą stotys yra geltonos ir raudonos taškus žemėlapyje.

Perkelti pele per norėdami pamatyti stoties vardą.

Tada spustelėkite, norėdami matyti oro stebėjimo ir prognozės.

Norėdami pakeisti žemėlapį: spustelėkite ant žalios mygtukų su juodo kryžiaus žemyn,; žalią mygtuką su brūkšneliu, jei norite nutolinti; arba žalių rodyklių gretimoms žemėlapius.


METAR-TAF: